sensor_id;sensor_type;location;lat;lon;timestamp;P1;durP1;ratioP1;P2;durP2;ratioP2
54171;SDS011;40076;52.354;4.970;2023-04-26T00:01:08;8.98;;;2.03;;
54171;SDS011;40076;52.354;4.970;2023-04-26T00:03:34;6.72;;;2.05;;
54171;SDS011;40076;52.354;4.970;2023-04-26T00:05:59;9.20;;;2.40;;
54171;SDS011;40076;52.354;4.970;2023-04-26T00:08:30;8.23;;;2.25;;
54171;SDS011;40076;52.354;4.970;2023-04-26T00:10:55;8.88;;;2.22;;
54171;SDS011;40076;52.354;4.970;2023-04-26T00:13:21;7.95;;;2.58;;
54171;SDS011;40076;52.354;4.970;2023-04-26T00:15:46;10.18;;;2.85;;
54171;SDS011;40076;52.354;4.970;2023-04-26T00:18:11;13.02;;;2.92;;
54171;SDS011;40076;52.354;4.970;2023-04-26T00:20:37;16.40;;;3.25;;
54171;SDS011;40076;52.354;4.970;2023-04-26T00:23:03;8.40;;;2.83;;
54171;SDS011;40076;52.354;4.970;2023-04-26T00:25:28;7.13;;;2.10;;
54171;SDS011;40076;52.354;4.970;2023-04-26T00:27:54;11.45;;;2.85;;
54171;SDS011;40076;52.354;4.970;2023-04-26T00:30:19;7.32;;;2.60;;
54171;SDS011;40076;52.354;4.970;2023-04-26T00:32:45;9.88;;;2.42;;
54171;SDS011;40076;52.354;4.970;2023-04-26T00:35:11;9.93;;;2.78;;
54171;SDS011;40076;52.354;4.970;2023-04-26T00:37:37;10.00;;;2.50;;
54171;SDS011;40076;52.354;4.970;2023-04-26T00:40:02;6.65;;;2.47;;
54171;SDS011;40076;52.354;4.970;2023-04-26T00:42:27;12.93;;;3.13;;
54171;SDS011;40076;52.354;4.970;2023-04-26T00:44:53;10.23;;;3.17;;
54171;SDS011;40076;52.354;4.970;2023-04-26T00:47:21;11.35;;;3.28;;
54171;SDS011;40076;52.354;4.970;2023-04-26T00:49:46;7.35;;;2.72;;
54171;SDS011;40076;52.354;4.970;2023-04-26T00:52:12;13.82;;;2.90;;
54171;SDS011;40076;52.354;4.970;2023-04-26T00:54:37;5.55;;;2.92;;
54171;SDS011;40076;52.354;4.970;2023-04-26T00:57:03;7.57;;;2.67;;
54171;SDS011;40076;52.354;4.970;2023-04-26T00:59:31;15.48;;;3.75;;
54171;SDS011;40076;52.354;4.970;2023-04-26T01:01:57;10.30;;;2.70;;
54171;SDS011;40076;52.354;4.970;2023-04-26T01:04:22;6.38;;;2.70;;
54171;SDS011;40076;52.354;4.970;2023-04-26T01:06:51;7.72;;;2.53;;
54171;SDS011;40076;52.354;4.970;2023-04-26T01:09:16;10.43;;;2.83;;
54171;SDS011;40076;52.354;4.970;2023-04-26T01:11:42;10.38;;;2.90;;
54171;SDS011;40076;52.354;4.970;2023-04-26T01:14:09;8.85;;;2.55;;
54171;SDS011;40076;52.354;4.970;2023-04-26T01:16:35;10.82;;;2.72;;
54171;SDS011;40076;52.354;4.970;2023-04-26T01:19:10;7.43;;;3.00;;
54171;SDS011;40076;52.354;4.970;2023-04-26T01:21:37;10.07;;;3.55;;
54171;SDS011;40076;52.354;4.970;2023-04-26T01:24:03;9.98;;;3.60;;
54171;SDS011;40076;52.354;4.970;2023-04-26T01:26:29;7.88;;;2.72;;
54171;SDS011;40076;52.354;4.970;2023-04-26T01:28:55;11.68;;;2.60;;
54171;SDS011;40076;52.354;4.970;2023-04-26T01:31:20;6.57;;;2.65;;
54171;SDS011;40076;52.354;4.970;2023-04-26T01:33:46;9.63;;;2.70;;
54171;SDS011;40076;52.354;4.970;2023-04-26T01:36:11;9.68;;;3.10;;
54171;SDS011;40076;52.354;4.970;2023-04-26T01:38:36;8.23;;;2.63;;
54171;SDS011;40076;52.354;4.970;2023-04-26T01:41:02;10.80;;;3.15;;
54171;SDS011;40076;52.354;4.970;2023-04-26T01:43:28;9.38;;;3.08;;
54171;SDS011;40076;52.354;4.970;2023-04-26T01:45:53;11.50;;;2.95;;
54171;SDS011;40076;52.354;4.970;2023-04-26T01:48:19;10.15;;;3.10;;
54171;SDS011;40076;52.354;4.970;2023-04-26T01:50:44;8.07;;;2.80;;
54171;SDS011;40076;52.354;4.970;2023-04-26T01:53:09;12.93;;;3.85;;
54171;SDS011;40076;52.354;4.970;2023-04-26T01:55:35;12.85;;;4.10;;
54171;SDS011;40076;52.354;4.970;2023-04-26T01:58:00;10.70;;;3.00;;
54171;SDS011;40076;52.354;4.970;2023-04-26T02:00:27;8.23;;;3.28;;
54171;SDS011;40076;52.354;4.970;2023-04-26T02:02:53;6.45;;;2.63;;
54171;SDS011;40076;52.354;4.970;2023-04-26T02:05:20;10.45;;;3.30;;
54171;SDS011;40076;52.354;4.970;2023-04-26T02:07:45;12.30;;;3.38;;
54171;SDS011;40076;52.354;4.970;2023-04-26T02:10:11;10.45;;;3.35;;
54171;SDS011;40076;52.354;4.970;2023-04-26T02:12:36;10.40;;;3.33;;
54171;SDS011;40076;52.354;4.970;2023-04-26T02:15:01;10.95;;;3.25;;
54171;SDS011;40076;52.354;4.970;2023-04-26T02:17:27;8.80;;;3.78;;
54171;SDS011;40076;52.354;4.970;2023-04-26T02:19:53;9.07;;;3.20;;
54171;SDS011;40076;52.354;4.970;2023-04-26T02:22:18;8.20;;;3.15;;
54171;SDS011;40076;52.354;4.970;2023-04-26T02:24:45;14.23;;;3.05;;
54171;SDS011;40076;52.354;4.970;2023-04-26T02:27:10;9.60;;;3.63;;
54171;SDS011;40076;52.354;4.970;2023-04-26T02:29:35;11.63;;;3.63;;
54171;SDS011;40076;52.354;4.970;2023-04-26T02:32:01;10.82;;;3.00;;
54171;SDS011;40076;52.354;4.970;2023-04-26T02:34:26;12.82;;;3.63;;
54171;SDS011;40076;52.354;4.970;2023-04-26T02:36:51;9.43;;;3.90;;
54171;SDS011;40076;52.354;4.970;2023-04-26T02:39:17;6.75;;;3.08;;
54171;SDS011;40076;52.354;4.970;2023-04-26T02:41:43;9.75;;;3.30;;
54171;SDS011;40076;52.354;4.970;2023-04-26T02:44:08;12.38;;;3.70;;
54171;SDS011;40076;52.354;4.970;2023-04-26T02:46:33;10.10;;;3.22;;
54171;SDS011;40076;52.354;4.970;2023-04-26T02:48:59;9.85;;;3.42;;
54171;SDS011;40076;52.354;4.970;2023-04-26T02:51:25;10.50;;;3.58;;
54171;SDS011;40076;52.354;4.970;2023-04-26T02:53:50;9.88;;;3.63;;
54171;SDS011;40076;52.354;4.970;2023-04-26T02:56:16;9.98;;;3.40;;
54171;SDS011;40076;52.354;4.970;2023-04-26T02:58:41;10.68;;;3.42;;
54171;SDS011;40076;52.354;4.970;2023-04-26T03:01:06;7.28;;;3.40;;
54171;SDS011;40076;52.354;4.970;2023-04-26T03:03:32;7.70;;;3.30;;
54171;SDS011;40076;52.354;4.970;2023-04-26T03:05:57;11.15;;;4.13;;
54171;SDS011;40076;52.354;4.970;2023-04-26T03:08:23;7.97;;;3.63;;
54171;SDS011;40076;52.354;4.970;2023-04-26T03:10:48;8.77;;;3.53;;
54171;SDS011;40076;52.354;4.970;2023-04-26T03:13:13;8.20;;;3.25;;
54171;SDS011;40076;52.354;4.970;2023-04-26T03:15:42;9.48;;;3.15;;
54171;SDS011;40076;52.354;4.970;2023-04-26T03:18:08;10.77;;;3.72;;
54171;SDS011;40076;52.354;4.970;2023-04-26T03:20:34;9.40;;;3.80;;
54171;SDS011;40076;52.354;4.970;2023-04-26T03:22:59;9.52;;;3.75;;
54171;SDS011;40076;52.354;4.970;2023-04-26T03:25:24;8.15;;;3.20;;
54171;SDS011;40076;52.354;4.970;2023-04-26T03:27:50;7.70;;;3.53;;
54171;SDS011;40076;52.354;4.970;2023-04-26T03:30:15;8.15;;;3.72;;
54171;SDS011;40076;52.354;4.970;2023-04-26T03:32:41;7.43;;;4.03;;
54171;SDS011;40076;52.354;4.970;2023-04-26T03:35:07;10.43;;;4.10;;
54171;SDS011;40076;52.354;4.970;2023-04-26T03:37:34;10.48;;;3.90;;
54171;SDS011;40076;52.354;4.970;2023-04-26T03:39:59;10.88;;;3.80;;
54171;SDS011;40076;52.354;4.970;2023-04-26T03:42:25;9.48;;;3.72;;
54171;SDS011;40076;52.354;4.970;2023-04-26T03:44:50;11.63;;;4.63;;
54171;SDS011;40076;52.354;4.970;2023-04-26T03:47:16;10.88;;;3.97;;
54171;SDS011;40076;52.354;4.970;2023-04-26T03:49:41;11.82;;;4.25;;
54171;SDS011;40076;52.354;4.970;2023-04-26T03:52:06;8.50;;;4.55;;
54171;SDS011;40076;52.354;4.970;2023-04-26T03:54:33;10.77;;;4.55;;
54171;SDS011;40076;52.354;4.970;2023-04-26T03:56:58;11.68;;;4.53;;
54171;SDS011;40076;52.354;4.970;2023-04-26T03:59:23;11.10;;;4.05;;
54171;SDS011;40076;52.354;4.970;2023-04-26T04:01:49;9.40;;;4.13;;
54171;SDS011;40076;52.354;4.970;2023-04-26T04:04:14;11.25;;;4.57;;
54171;SDS011;40076;52.354;4.970;2023-04-26T04:06:40;16.45;;;4.00;;
54171;SDS011;40076;52.354;4.970;2023-04-26T04:09:05;15.65;;;4.18;;
54171;SDS011;40076;52.354;4.970;2023-04-26T04:11:31;10.40;;;4.07;;
54171;SDS011;40076;52.354;4.970;2023-04-26T04:13:57;8.48;;;4.10;;
54171;SDS011;40076;52.354;4.970;2023-04-26T04:16:22;10.65;;;4.15;;
54171;SDS011;40076;52.354;4.970;2023-04-26T04:18:47;8.85;;;4.05;;
54171;SDS011;40076;52.354;4.970;2023-04-26T04:21:13;10.32;;;4.32;;
54171;SDS011;40076;52.354;4.970;2023-04-26T04:23:38;9.00;;;4.45;;
54171;SDS011;40076;52.354;4.970;2023-04-26T04:26:03;11.10;;;3.85;;
54171;SDS011;40076;52.354;4.970;2023-04-26T04:28:29;11.93;;;4.30;;
54171;SDS011;40076;52.354;4.970;2023-04-26T04:30:55;13.77;;;4.68;;
54171;SDS011;40076;52.354;4.970;2023-04-26T04:33:21;12.50;;;4.00;;
54171;SDS011;40076;52.354;4.970;2023-04-26T04:35:46;10.30;;;4.20;;
54171;SDS011;40076;52.354;4.970;2023-04-26T04:38:11;9.73;;;3.70;;
54171;SDS011;40076;52.354;4.970;2023-04-26T04:40:37;10.13;;;4.10;;
54171;SDS011;40076;52.354;4.970;2023-04-26T04:43:02;8.00;;;3.95;;
54171;SDS011;40076;52.354;4.970;2023-04-26T04:45:27;11.18;;;4.07;;
54171;SDS011;40076;52.354;4.970;2023-04-26T04:47:53;8.18;;;3.75;;
54171;SDS011;40076;52.354;4.970;2023-04-26T04:50:18;15.65;;;4.60;;
54171;SDS011;40076;52.354;4.970;2023-04-26T04:52:44;10.70;;;3.83;;
54171;SDS011;40076;52.354;4.970;2023-04-26T04:55:10;13.07;;;5.22;;
54171;SDS011;40076;52.354;4.970;2023-04-26T04:57:35;10.75;;;4.57;;
54171;SDS011;40076;52.354;4.970;2023-04-26T05:00:00;11.70;;;4.68;;
54171;SDS011;40076;52.354;4.970;2023-04-26T05:02:33;11.48;;;4.63;;
54171;SDS011;40076;52.354;4.970;2023-04-26T05:04:59;9.80;;;4.40;;
54171;SDS011;40076;52.354;4.970;2023-04-26T05:07:25;15.32;;;5.18;;
54171;SDS011;40076;52.354;4.970;2023-04-26T05:09:51;10.95;;;4.57;;
54171;SDS011;40076;52.354;4.970;2023-04-26T05:12:16;10.18;;;4.63;;
54171;SDS011;40076;52.354;4.970;2023-04-26T05:14:41;11.13;;;4.63;;
54171;SDS011;40076;52.354;4.970;2023-04-26T05:17:07;11.57;;;4.63;;
54171;SDS011;40076;52.354;4.970;2023-04-26T05:19:32;13.38;;;5.93;;
54171;SDS011;40076;52.354;4.970;2023-04-26T05:21:57;10.27;;;4.68;;
54171;SDS011;40076;52.354;4.970;2023-04-26T05:24:23;11.13;;;4.30;;
54171;SDS011;40076;52.354;4.970;2023-04-26T05:26:48;11.48;;;4.93;;
54171;SDS011;40076;52.354;4.970;2023-04-26T05:29:13;15.30;;;5.88;;
54171;SDS011;40076;52.354;4.970;2023-04-26T05:31:39;9.90;;;4.13;;
54171;SDS011;40076;52.354;4.970;2023-04-26T05:34:04;10.50;;;4.75;;
54171;SDS011;40076;52.354;4.970;2023-04-26T05:36:30;10.55;;;4.65;;
54171;SDS011;40076;52.354;4.970;2023-04-26T05:38:56;11.98;;;4.80;;
54171;SDS011;40076;52.354;4.970;2023-04-26T05:41:22;9.77;;;4.65;;
54171;SDS011;40076;52.354;4.970;2023-04-26T05:43:47;17.00;;;5.55;;
54171;SDS011;40076;52.354;4.970;2023-04-26T05:46:12;10.30;;;4.80;;
54171;SDS011;40076;52.354;4.970;2023-04-26T05:48:38;8.55;;;4.10;;
54171;SDS011;40076;52.354;4.970;2023-04-26T05:51:03;9.65;;;4.43;;
54171;SDS011;40076;52.354;4.970;2023-04-26T05:53:28;9.77;;;4.90;;
54171;SDS011;40076;52.354;4.970;2023-04-26T05:55:54;12.38;;;4.75;;
54171;SDS011;40076;52.354;4.970;2023-04-26T05:58:19;16.52;;;4.90;;
54171;SDS011;40076;52.354;4.970;2023-04-26T06:00:45;12.85;;;5.05;;
54171;SDS011;40076;52.354;4.970;2023-04-26T06:03:10;12.25;;;4.30;;
54171;SDS011;40076;52.354;4.970;2023-04-26T06:05:36;10.68;;;4.50;;
54171;SDS011;40076;52.354;4.970;2023-04-26T06:08:05;8.57;;;3.67;;
54171;SDS011;40076;52.354;4.970;2023-04-26T06:10:30;10.38;;;4.65;;
54171;SDS011;40076;52.354;4.970;2023-04-26T06:12:55;9.80;;;4.55;;
54171;SDS011;40076;52.354;4.970;2023-04-26T06:15:21;10.45;;;4.80;;
54171;SDS011;40076;52.354;4.970;2023-04-26T06:17:46;11.75;;;4.40;;
54171;SDS011;40076;52.354;4.970;2023-04-26T06:20:11;10.30;;;4.57;;
54171;SDS011;40076;52.354;4.970;2023-04-26T06:22:37;9.68;;;4.00;;
54171;SDS011;40076;52.354;4.970;2023-04-26T06:25:05;11.10;;;3.83;;
54171;SDS011;40076;52.354;4.970;2023-04-26T06:27:31;13.27;;;4.03;;
54171;SDS011;40076;52.354;4.970;2023-04-26T06:29:56;11.10;;;4.40;;
54171;SDS011;40076;52.354;4.970;2023-04-26T06:32:22;10.50;;;4.03;;
54171;SDS011;40076;52.354;4.970;2023-04-26T06:34:47;7.72;;;3.10;;
54171;SDS011;40076;52.354;4.970;2023-04-26T06:37:13;9.68;;;3.00;;
54171;SDS011;40076;52.354;4.970;2023-04-26T06:39:38;6.53;;;2.22;;
54171;SDS011;40076;52.354;4.970;2023-04-26T06:42:03;10.45;;;2.70;;
54171;SDS011;40076;52.354;4.970;2023-04-26T06:44:30;9.75;;;2.22;;
54171;SDS011;40076;52.354;4.970;2023-04-26T06:46:55;6.90;;;2.30;;
54171;SDS011;40076;52.354;4.970;2023-04-26T06:49:21;7.53;;;2.55;;
54171;SDS011;40076;52.354;4.970;2023-04-26T06:51:47;6.78;;;2.60;;
54171;SDS011;40076;52.354;4.970;2023-04-26T06:54:12;11.75;;;3.10;;
54171;SDS011;40076;52.354;4.970;2023-04-26T06:56:38;7.93;;;3.30;;
54171;SDS011;40076;52.354;4.970;2023-04-26T06:59:04;13.63;;;3.50;;
54171;SDS011;40076;52.354;4.970;2023-04-26T07:01:30;11.02;;;3.15;;
54171;SDS011;40076;52.354;4.970;2023-04-26T07:04:02;13.13;;;3.08;;
54171;SDS011;40076;52.354;4.970;2023-04-26T07:06:29;9.45;;;3.38;;
54171;SDS011;40076;52.354;4.970;2023-04-26T07:08:56;8.48;;;2.78;;
54171;SDS011;40076;52.354;4.970;2023-04-26T07:11:22;6.53;;;2.20;;
54171;SDS011;40076;52.354;4.970;2023-04-26T07:13:47;8.55;;;3.20;;
54171;SDS011;40076;52.354;4.970;2023-04-26T07:16:12;6.80;;;2.45;;
54171;SDS011;40076;52.354;4.970;2023-04-26T07:18:38;7.28;;;2.25;;
54171;SDS011;40076;52.354;4.970;2023-04-26T07:21:04;7.40;;;2.80;;
54171;SDS011;40076;52.354;4.970;2023-04-26T07:23:29;9.63;;;3.58;;
54171;SDS011;40076;52.354;4.970;2023-04-26T07:25:55;11.05;;;3.65;;
54171;SDS011;40076;52.354;4.970;2023-04-26T07:28:20;8.75;;;2.50;;
54171;SDS011;40076;52.354;4.970;2023-04-26T07:30:46;8.38;;;2.45;;
54171;SDS011;40076;52.354;4.970;2023-04-26T07:33:11;11.68;;;3.10;;
54171;SDS011;40076;52.354;4.970;2023-04-26T07:35:36;7.75;;;2.80;;
54171;SDS011;40076;52.354;4.970;2023-04-26T07:38:02;11.23;;;3.38;;
54171;SDS011;40076;52.354;4.970;2023-04-26T07:40:27;5.28;;;2.40;;
54171;SDS011;40076;52.354;4.970;2023-04-26T07:42:53;16.50;;;2.80;;
54171;SDS011;40076;52.354;4.970;2023-04-26T07:45:18;12.18;;;2.67;;
54171;SDS011;40076;52.354;4.970;2023-04-26T07:47:44;8.88;;;2.88;;
54171;SDS011;40076;52.354;4.970;2023-04-26T07:50:09;8.20;;;2.45;;
54171;SDS011;40076;52.354;4.970;2023-04-26T07:52:35;7.00;;;2.92;;
54171;SDS011;40076;52.354;4.970;2023-04-26T07:55:00;9.10;;;3.10;;
54171;SDS011;40076;52.354;4.970;2023-04-26T07:57:26;7.00;;;2.83;;
54171;SDS011;40076;52.354;4.970;2023-04-26T07:59:51;10.68;;;3.40;;
54171;SDS011;40076;52.354;4.970;2023-04-26T08:02:16;7.65;;;3.00;;
54171;SDS011;40076;52.354;4.970;2023-04-26T08:04:46;5.55;;;2.80;;
54171;SDS011;40076;52.354;4.970;2023-04-26T08:07:13;8.32;;;3.20;;
54171;SDS011;40076;52.354;4.970;2023-04-26T08:09:39;7.97;;;2.60;;
54171;SDS011;40076;52.354;4.970;2023-04-26T08:12:04;6.38;;;2.85;;
54171;SDS011;40076;52.354;4.970;2023-04-26T08:14:29;7.70;;;2.58;;
54171;SDS011;40076;52.354;4.970;2023-04-26T08:16:55;9.70;;;2.67;;
54171;SDS011;40076;52.354;4.970;2023-04-26T08:19:20;12.15;;;2.83;;
54171;SDS011;40076;52.354;4.970;2023-04-26T08:21:46;7.20;;;2.60;;
54171;SDS011;40076;52.354;4.970;2023-04-26T08:24:11;5.97;;;2.20;;
54171;SDS011;40076;52.354;4.970;2023-04-26T08:26:36;6.35;;;2.05;;
54171;SDS011;40076;52.354;4.970;2023-04-26T08:29:02;5.28;;;1.70;;
54171;SDS011;40076;52.354;4.970;2023-04-26T08:31:27;8.70;;;1.80;;
54171;SDS011;40076;52.354;4.970;2023-04-26T08:33:53;7.80;;;1.92;;
54171;SDS011;40076;52.354;4.970;2023-04-26T08:36:18;5.05;;;1.70;;
54171;SDS011;40076;52.354;4.970;2023-04-26T08:38:44;5.35;;;1.48;;
54171;SDS011;40076;52.354;4.970;2023-04-26T08:41:11;7.07;;;1.50;;
54171;SDS011;40076;52.354;4.970;2023-04-26T08:43:38;5.68;;;1.65;;
54171;SDS011;40076;52.354;4.970;2023-04-26T08:46:06;4.68;;;1.70;;
54171;SDS011;40076;52.354;4.970;2023-04-26T08:48:34;4.45;;;1.50;;
54171;SDS011;40076;52.354;4.970;2023-04-26T08:51:01;2.95;;;1.25;;
54171;SDS011;40076;52.354;4.970;2023-04-26T08:53:27;7.20;;;1.20;;
54171;SDS011;40076;52.354;4.970;2023-04-26T08:55:55;4.80;;;1.77;;
54171;SDS011;40076;52.354;4.970;2023-04-26T08:58:21;5.72;;;1.80;;
54171;SDS011;40076;52.354;4.970;2023-04-26T09:00:47;6.68;;;1.88;;
54171;SDS011;40076;52.354;4.970;2023-04-26T09:03:14;3.97;;;1.33;;
54171;SDS011;40076;52.354;4.970;2023-04-26T09:05:39;4.15;;;2.05;;
54171;SDS011;40076;52.354;4.970;2023-04-26T09:08:10;7.50;;;2.70;;
54171;SDS011;40076;52.354;4.970;2023-04-26T09:10:40;5.95;;;1.60;;
54171;SDS011;40076;52.354;4.970;2023-04-26T09:13:05;4.30;;;1.35;;
54171;SDS011;40076;52.354;4.970;2023-04-26T09:15:31;5.95;;;1.38;;
54171;SDS011;40076;52.354;4.970;2023-04-26T09:17:56;9.40;;;1.58;;
54171;SDS011;40076;52.354;4.970;2023-04-26T09:20:40;3.97;;;1.58;;
54171;SDS011;40076;52.354;4.970;2023-04-26T09:23:06;5.57;;;1.70;;
54171;SDS011;40076;52.354;4.970;2023-04-26T09:25:33;9.80;;;2.22;;
54171;SDS011;40076;52.354;4.970;2023-04-26T09:27:59;4.05;;;1.73;;
54171;SDS011;40076;52.354;4.970;2023-04-26T09:30:29;10.27;;;2.33;;
54171;SDS011;40076;52.354;4.970;2023-04-26T09:32:56;5.28;;;1.80;;
54171;SDS011;40076;52.354;4.970;2023-04-26T09:35:40;7.47;;;1.75;;
54171;SDS011;40076;52.354;4.970;2023-04-26T09:38:07;5.45;;;1.55;;
54171;SDS011;40076;52.354;4.970;2023-04-26T09:40:34;4.63;;;1.42;;
54171;SDS011;40076;52.354;4.970;2023-04-26T09:43:08;2.28;;;1.00;;
54171;SDS011;40076;52.354;4.970;2023-04-26T09:45:53;6.78;;;1.30;;
54171;SDS011;40076;52.354;4.970;2023-04-26T09:48:27;5.38;;;1.42;;
54171;SDS011;40076;52.354;4.970;2023-04-26T09:50:55;3.95;;;1.35;;
54171;SDS011;40076;52.354;4.970;2023-04-26T09:53:26;6.47;;;2.05;;
54171;SDS011;40076;52.354;4.970;2023-04-26T09:55:55;4.68;;;1.40;;
54171;SDS011;40076;52.354;4.970;2023-04-26T09:58:22;4.15;;;1.42;;
54171;SDS011;40076;52.354;4.970;2023-04-26T10:00:51;4.28;;;1.38;;
54171;SDS011;40076;52.354;4.970;2023-04-26T10:03:17;3.92;;;1.85;;
54171;SDS011;40076;52.354;4.970;2023-04-26T10:05:47;3.78;;;1.35;;
54171;SDS011;40076;52.354;4.970;2023-04-26T10:08:12;5.05;;;1.45;;
54171;SDS011;40076;52.354;4.970;2023-04-26T10:10:37;5.55;;;1.50;;
54171;SDS011;40076;52.354;4.970;2023-04-26T10:13:04;3.20;;;1.65;;
54171;SDS011;40076;52.354;4.970;2023-04-26T10:15:30;8.18;;;1.98;;
54171;SDS011;40076;52.354;4.970;2023-04-26T10:17:56;4.22;;;1.70;;
54171;SDS011;40076;52.354;4.970;2023-04-26T10:20:22;3.58;;;1.42;;
54171;SDS011;40076;52.354;4.970;2023-04-26T10:22:51;8.05;;;1.90;;
54171;SDS011;40076;52.354;4.970;2023-04-26T10:25:33;7.22;;;1.60;;
54171;SDS011;40076;52.354;4.970;2023-04-26T10:28:02;7.97;;;2.08;;
54171;SDS011;40076;52.354;4.970;2023-04-26T10:30:28;4.82;;;1.60;;
54171;SDS011;40076;52.354;4.970;2023-04-26T10:35:22;6.22;;;1.65;;
54171;SDS011;40076;52.354;4.970;2023-04-26T10:40:33;8.15;;;1.75;;
54171;SDS011;40076;52.354;4.970;2023-04-26T10:45:32;7.47;;;2.20;;
54171;SDS011;40076;52.354;4.970;2023-04-26T10:53:32;4.07;;;1.65;;
54171;SDS011;40076;52.354;4.970;2023-04-26T10:59:10;5.88;;;2.00;;
54171;SDS011;40076;52.354;4.970;2023-04-26T11:01:37;6.18;;;1.73;;
54171;SDS011;40076;52.354;4.970;2023-04-26T11:04:05;8.77;;;1.90;;
54171;SDS011;40076;52.354;4.970;2023-04-26T11:06:48;5.28;;;1.75;;
54171;SDS011;40076;52.354;4.970;2023-04-26T11:12:20;5.72;;;1.73;;
54171;SDS011;40076;52.354;4.970;2023-04-26T11:14:46;7.45;;;2.13;;
54171;SDS011;40076;52.354;4.970;2023-04-26T11:17:11;8.98;;;2.00;;
54171;SDS011;40076;52.354;4.970;2023-04-26T11:19:37;5.28;;;1.63;;
54171;SDS011;40076;52.354;4.970;2023-04-26T11:22:05;4.72;;;1.60;;
54171;SDS011;40076;52.354;4.970;2023-04-26T11:24:31;5.43;;;1.40;;
54171;SDS011;40076;52.354;4.970;2023-04-26T11:26:57;6.40;;;1.38;;
54171;SDS011;40076;52.354;4.970;2023-04-26T11:29:23;5.78;;;1.65;;
54171;SDS011;40076;52.354;4.970;2023-04-26T11:31:51;10.63;;;1.80;;
54171;SDS011;40076;52.354;4.970;2023-04-26T11:34:19;4.95;;;1.63;;
54171;SDS011;40076;52.354;4.970;2023-04-26T11:37:00;7.15;;;1.67;;
54171;SDS011;40076;52.354;4.970;2023-04-26T11:39:27;4.18;;;1.40;;
54171;SDS011;40076;52.354;4.970;2023-04-26T11:42:03;3.97;;;1.63;;
54171;SDS011;40076;52.354;4.970;2023-04-26T11:44:32;7.63;;;1.40;;
54171;SDS011;40076;52.354;4.970;2023-04-26T11:46:58;6.15;;;1.35;;
54171;SDS011;40076;52.354;4.970;2023-04-26T11:49:27;4.60;;;2.03;;
54171;SDS011;40076;52.354;4.970;2023-04-26T11:51:53;24.05;;;2.50;;
54171;SDS011;40076;52.354;4.970;2023-04-26T11:54:26;5.00;;;1.55;;
54171;SDS011;40076;52.354;4.970;2023-04-26T11:56:58;6.65;;;1.67;;
54171;SDS011;40076;52.354;4.970;2023-04-26T11:59:28;6.68;;;1.83;;
54171;SDS011;40076;52.354;4.970;2023-04-26T12:01:55;4.15;;;1.50;;
54171;SDS011;40076;52.354;4.970;2023-04-26T12:04:28;4.68;;;1.60;;
54171;SDS011;40076;52.354;4.970;2023-04-26T12:06:54;9.20;;;1.60;;
54171;SDS011;40076;52.354;4.970;2023-04-26T12:09:26;5.22;;;1.70;;
54171;SDS011;40076;52.354;4.970;2023-04-26T12:11:57;8.52;;;1.80;;
54171;SDS011;40076;52.354;4.970;2023-04-26T12:14:30;6.72;;;1.85;;
54171;SDS011;40076;52.354;4.970;2023-04-26T12:16:57;8.32;;;1.92;;
54171;SDS011;40076;52.354;4.970;2023-04-26T12:19:23;6.60;;;1.58;;
54171;SDS011;40076;52.354;4.970;2023-04-26T12:21:48;7.80;;;1.70;;
54171;SDS011;40076;52.354;4.970;2023-04-26T12:24:22;8.55;;;1.60;;
54171;SDS011;40076;52.354;4.970;2023-04-26T12:29:14;2.90;;;1.17;;
54171;SDS011;40076;52.354;4.970;2023-04-26T12:31:39;5.15;;;1.40;;
54171;SDS011;40076;52.354;4.970;2023-04-26T12:34:05;5.50;;;1.30;;
54171;SDS011;40076;52.354;4.970;2023-04-26T12:36:32;6.15;;;1.73;;
54171;SDS011;40076;52.354;4.970;2023-04-26T12:38:57;2.40;;;1.10;;
54171;SDS011;40076;52.354;4.970;2023-04-26T12:41:22;7.57;;;1.33;;
54171;SDS011;40076;52.354;4.970;2023-04-26T12:43:48;7.57;;;1.20;;
54171;SDS011;40076;52.354;4.970;2023-04-26T12:46:13;8.70;;;1.75;;
54171;SDS011;40076;52.354;4.970;2023-04-26T12:48:39;5.43;;;1.77;;
54171;SDS011;40076;52.354;4.970;2023-04-26T12:51:04;5.40;;;1.45;;
54171;SDS011;40076;52.354;4.970;2023-04-26T12:53:30;5.05;;;1.30;;
54171;SDS011;40076;52.354;4.970;2023-04-26T12:55:56;10.27;;;1.40;;
54171;SDS011;40076;52.354;4.970;2023-04-26T12:58:21;6.32;;;1.33;;
54171;SDS011;40076;52.354;4.970;2023-04-26T13:00:46;5.30;;;1.75;;
54171;SDS011;40076;52.354;4.970;2023-04-26T13:03:12;4.53;;;1.58;;
54171;SDS011;40076;52.354;4.970;2023-04-26T13:05:38;5.70;;;1.30;;
54171;SDS011;40076;52.354;4.970;2023-04-26T13:08:05;4.70;;;1.38;;
54171;SDS011;40076;52.354;4.970;2023-04-26T13:10:30;4.40;;;1.20;;
54171;SDS011;40076;52.354;4.970;2023-04-26T13:12:56;6.00;;;1.27;;
54171;SDS011;40076;52.354;4.970;2023-04-26T13:15:22;5.45;;;1.33;;
54171;SDS011;40076;52.354;4.970;2023-04-26T13:17:54;4.32;;;1.70;;
54171;SDS011;40076;52.354;4.970;2023-04-26T13:20:20;5.68;;;1.45;;
54171;SDS011;40076;52.354;4.970;2023-04-26T13:22:45;7.07;;;1.33;;
54171;SDS011;40076;52.354;4.970;2023-04-26T13:25:10;6.53;;;1.30;;
54171;SDS011;40076;52.354;4.970;2023-04-26T13:27:37;3.70;;;1.20;;
54171;SDS011;40076;52.354;4.970;2023-04-26T13:30:02;6.35;;;1.40;;
54171;SDS011;40076;52.354;4.970;2023-04-26T13:32:28;3.03;;;1.25;;
54171;SDS011;40076;52.354;4.970;2023-04-26T13:34:54;5.13;;;1.20;;
54171;SDS011;40076;52.354;4.970;2023-04-26T13:37:21;4.30;;;1.20;;
54171;SDS011;40076;52.354;4.970;2023-04-26T13:39:46;7.97;;;1.98;;
54171;SDS011;40076;52.354;4.970;2023-04-26T13:42:13;4.20;;;1.50;;
54171;SDS011;40076;52.354;4.970;2023-04-26T13:44:42;5.78;;;1.45;;
54171;SDS011;40076;52.354;4.970;2023-04-26T13:47:07;5.63;;;1.50;;
54171;SDS011;40076;52.354;4.970;2023-04-26T13:49:37;5.75;;;1.60;;
54171;SDS011;40076;52.354;4.970;2023-04-26T13:52:04;4.15;;;1.20;;
54171;SDS011;40076;52.354;4.970;2023-04-26T13:54:31;7.10;;;1.27;;
54171;SDS011;40076;52.354;4.970;2023-04-26T13:56:57;3.22;;;1.10;;
54171;SDS011;40076;52.354;4.970;2023-04-26T13:59:22;4.28;;;1.10;;
54171;SDS011;40076;52.354;4.970;2023-04-26T14:01:47;3.58;;;1.30;;
54171;SDS011;40076;52.354;4.970;2023-04-26T14:04:13;5.93;;;1.30;;
54171;SDS011;40076;52.354;4.970;2023-04-26T14:06:38;5.70;;;1.40;;
54171;SDS011;40076;52.354;4.970;2023-04-26T14:09:03;5.10;;;1.20;;
54171;SDS011;40076;52.354;4.970;2023-04-26T14:11:29;6.18;;;1.40;;
54171;SDS011;40076;52.354;4.970;2023-04-26T14:13:55;5.88;;;1.50;;
54171;SDS011;40076;52.354;4.970;2023-04-26T14:16:21;5.18;;;1.50;;
54171;SDS011;40076;52.354;4.970;2023-04-26T14:18:47;3.30;;;1.20;;
54171;SDS011;40076;52.354;4.970;2023-04-26T14:21:13;4.70;;;1.30;;
54171;SDS011;40076;52.354;4.970;2023-04-26T14:23:39;4.25;;;1.23;;
54171;SDS011;40076;52.354;4.970;2023-04-26T14:26:04;4.63;;;1.10;;
54171;SDS011;40076;52.354;4.970;2023-04-26T14:28:30;4.35;;;1.20;;
54171;SDS011;40076;52.354;4.970;2023-04-26T14:30:55;4.45;;;1.50;;
54171;SDS011;40076;52.354;4.970;2023-04-26T14:33:20;2.95;;;1.63;;
54171;SDS011;40076;52.354;4.970;2023-04-26T14:35:46;5.50;;;1.50;;
54171;SDS011;40076;52.354;4.970;2023-04-26T14:38:11;6.45;;;1.63;;
54171;SDS011;40076;52.354;4.970;2023-04-26T14:40:36;4.78;;;1.50;;
54171;SDS011;40076;52.354;4.970;2023-04-26T14:43:02;5.70;;;1.30;;
54171;SDS011;40076;52.354;4.970;2023-04-26T14:45:27;4.55;;;1.48;;
54171;SDS011;40076;52.354;4.970;2023-04-26T14:47:53;4.88;;;1.30;;
54171;SDS011;40076;52.354;4.970;2023-04-26T14:50:18;5.32;;;1.45;;
54171;SDS011;40076;52.354;4.970;2023-04-26T14:52:44;4.40;;;1.30;;
54171;SDS011;40076;52.354;4.970;2023-04-26T14:55:10;4.22;;;1.27;;
54171;SDS011;40076;52.354;4.970;2023-04-26T14:57:41;5.05;;;1.20;;
54171;SDS011;40076;52.354;4.970;2023-04-26T15:00:06;5.72;;;1.45;;